Time;durP1;ratioP1;P1;durP2;ratioP2;P2;SDS_P1;SDS_P2;PMS_P1;PMS_P2;Temp;Humidity;BMP_temperature;BMP_pressure;BME280_temperature;BME280_humidity;BME280_pressure;Samples;Min_cycle;Max_cycle;Signal;HPM_P1;HPM_P2
2023/10/17 00:02:08;;;;;;;14.00;6.25;;;;;;;5.39;100.00;101582.25;6117093;28;20036;-67
2023/10/17 00:05:04;;;;;;;11.25;5.65;;;;;;;5.40;100.00;101586.59;6130316;28;20052;-67
2023/10/17 00:08:00;;;;;;;11.55;6.05;;;;;;;5.31;100.00;101581.88;6119935;28;20043;-66
2023/10/17 00:10:57;;;;;;;10.30;5.47;;;;;;;5.32;100.00;101575.69;6108401;28;20628;-67
2023/10/17 00:14:08;;;;;;;12.80;6.22;;;;;;;5.63;100.00;101588.66;6121600;28;20078;-67
2023/10/17 00:17:04;;;;;;;14.05;6.00;;;;;;;5.79;100.00;101576.25;6114144;28;20574;-66
2023/10/17 00:20:03;;;;;;;11.00;5.85;;;;;;;5.66;100.00;101579.75;6119777;28;20078;-67
2023/10/17 00:22:59;;;;;;;8.93;4.93;;;;;;;5.19;100.00;101583.44;6114075;28;20476;-67
2023/10/17 00:25:54;;;;;;;9.90;4.47;;;;;;;4.86;100.00;101571.44;6115868;28;20031;-67
2023/10/17 00:28:52;;;;;;;9.90;5.10;;;;;;;4.80;100.00;101588.38;6130961;28;20020;-66
2023/10/17 00:31:47;;;;;;;9.90;4.38;;;;;;;4.54;100.00;101586.41;6116946;28;20040;-67
2023/10/17 00:34:46;;;;;;;8.00;4.27;;;;;;;4.60;100.00;101584.25;6125586;28;20043;-67
2023/10/17 00:37:50;;;;;;;8.82;3.97;;;;;;;4.52;100.00;101578.59;6120461;28;20047;-67
2023/10/17 00:43:43;;;;;;;8.45;3.75;;;;;;;4.43;100.00;101579.09;6123428;28;20408;-66
2023/10/17 00:46:39;;;;;;;6.10;3.80;;;;;;;5.04;100.00;101586.13;6123484;28;20079;-66
2023/10/17 00:49:42;;;;;;;8.93;3.93;;;;;;;4.95;100.00;101576.97;6125061;28;20036;-65
2023/10/17 00:52:37;;;;;;;7.55;4.22;;;;;;;4.77;100.00;101591.19;6124725;28;20222;-67
2023/10/17 00:55:35;;;;;;;8.30;4.47;;;;;;;4.77;100.00;101584.16;6105296;28;20149;-67
2023/10/17 00:58:30;;;;;;;9.85;4.85;;;;;;;4.48;100.00;101587.59;6133239;28;20028;-67
2023/10/17 01:01:27;;;;;;;12.27;4.57;;;;;;;4.20;100.00;101587.41;6123816;28;20035;-66
2023/10/17 01:04:24;;;;;;;10.27;4.35;;;;;;;4.74;100.00;101583.47;6125372;28;20024;-67
2023/10/17 01:07:25;;;;;;;12.95;4.15;;;;;;;4.81;100.00;101574.28;6128456;28;20031;-67
2023/10/17 01:10:24;;;;;;;9.57;4.53;;;;;;;4.66;100.00;101568.16;6117979;28;20032;-66
2023/10/17 01:13:20;;;;;;;9.32;4.40;;;;;;;4.49;100.00;101570.88;6124096;28;20040;-66
2023/10/17 01:16:16;;;;;;;9.40;4.40;;;;;;;4.22;100.00;101570.66;6124825;28;20025;-66
2023/10/17 01:19:14;;;;;;;11.30;4.32;;;;;;;4.02;100.00;101572.69;6122539;28;20024;-66
2023/10/17 01:22:09;;;;;;;7.03;3.75;;;;;;;4.42;100.00;101573.94;6118618;28;20103;-66
2023/10/17 01:25:18;;;;;;;7.20;3.87;;;;;;;4.51;100.00;101570.81;6112711;28;20043;-67
2023/10/17 01:28:13;;;;;;;9.43;4.18;;;;;;;4.70;100.00;101568.84;6124356;28;20027;-67
2023/10/17 01:31:08;;;;;;;10.63;4.00;;;;;;;4.63;100.00;101570.09;6116284;28;20373;-67
2023/10/17 01:34:08;;;;;;;15.77;5.15;;;;;;;4.38;100.00;101570.63;6105139;28;20395;-67
2023/10/17 01:37:03;;;;;;;7.65;4.30;;;;;;;4.35;100.00;101568.19;6127681;28;20547;-67
2023/10/17 01:39:58;;;;;;;11.20;3.87;;;;;;;4.46;100.00;101571.06;6123521;28;20025;-66
2023/10/17 01:42:57;;;;;;;8.17;4.30;;;;;;;4.18;100.00;101574.34;6124099;28;20787;-67
2023/10/17 01:45:54;;;;;;;8.45;4.10;;;;;;;4.18;100.00;101573.53;6124076;28;20119;-66
2023/10/17 01:48:53;;;;;;;6.10;3.35;;;;;;;4.23;100.00;101561.00;6123772;28;20032;-67
2023/10/17 01:51:49;;;;;;;7.38;3.97;;;;;;;3.98;100.00;101564.13;6127232;28;20037;-67
2023/10/17 01:54:48;;;;;;;9.00;3.95;;;;;;;3.79;100.00;101568.66;6127446;28;20068;-66
2023/10/17 01:57:44;;;;;;;9.93;3.85;;;;;;;3.85;100.00;101549.97;6123553;28;20060;-66
2023/10/17 02:00:39;;;;;;;52.85;5.00;;;;;;;3.86;100.00;101563.94;6122944;28;20039;-67
2023/10/17 02:03:34;;;;;;;62.30;5.33;;;;;;;3.88;100.00;101548.97;6123878;28;20062;-67
2023/10/17 02:06:32;;;;;;;12.63;3.47;;;;;;;4.29;100.00;101551.94;6123893;28;20269;-66
2023/10/17 02:12:23;;;;;;;18.52;3.90;;;;;;;4.46;100.00;101546.56;6123491;28;20548;-67
2023/10/17 02:15:24;;;;;;;5.43;3.10;;;;;;;4.26;100.00;101529.34;6123466;28;20024;-67
2023/10/17 02:18:19;;;;;;;;;;;;;;;4.45;100.00;101544.91;6124009;28;20478;-67
2023/10/17 02:21:15;;;;;;;5.90;3.37;;;;;;;4.47;100.00;101543.88;6119975;28;19912;-66
2023/10/17 02:24:10;;;;;;;6.43;3.40;;;;;;;4.49;100.00;101535.91;6120547;28;20044;-67
2023/10/17 02:27:13;;;;;;;7.32;3.38;;;;;;;4.26;100.00;101549.47;6122997;28;20032;-67
2023/10/17 02:30:10;;;;;;;12.05;3.63;;;;;;;4.06;100.00;101558.44;6124160;28;20044;-66
2023/10/17 02:33:17;;;;;;;9.25;3.63;;;;;;;3.96;100.00;101557.25;6125259;28;20036;-67
2023/10/17 02:36:12;;;;;;;6.43;2.75;;;;;;;4.35;100.00;101556.84;6120911;28;20025;-67
2023/10/17 02:39:08;;;;;;;18.02;3.33;;;;;;;3.98;100.00;101556.25;6122911;28;20036;-66
2023/10/17 02:42:08;;;;;;;30.10;4.45;;;;;;;3.43;100.00;101568.81;6122535;28;20375;-67
2023/10/17 02:45:07;;;;;;;50.33;4.47;;;;;;;3.34;100.00;101571.91;6122684;28;20031;-67
2023/10/17 02:54:15;;;;;;;20.15;4.20;;;;;;;3.92;100.00;101550.47;6122708;28;20040;-67
2023/10/17 02:57:11;;;;;;;19.30;3.85;;;;;;;4.27;100.00;101559.88;6120457;28;20037;-66
2023/10/17 03:00:22;;;;;;;17.53;3.77;;;;;;;4.33;100.00;101562.16;6124201;28;20411;-67
2023/10/17 03:03:19;;;;;;;18.08;3.78;;;;;;;4.02;100.00;101543.81;6122379;28;20017;-67
2023/10/17 03:06:15;;;;;;;6.57;3.20;;;;;;;3.79;100.00;101550.28;6122717;28;20028;-67
2023/10/17 03:09:16;;;;;;;10.25;3.05;;;;;;;3.76;100.00;101553.09;6121833;28;20036;-66
2023/10/17 03:12:19;;;;;;;38.50;3.33;;;;;;;3.83;100.00;101557.06;6121894;28;20483;-67
2023/10/17 03:18:15;;;;;;;8.77;3.57;;;;;;;3.82;100.00;101539.66;6121665;28;20054;-67
2023/10/17 03:21:11;;;;;;;;;;;;;;;4.31;100.00;101561.41;6119584;28;20016;-67
2023/10/17 03:24:12;;;;;;;10.68;3.00;;;;;;;4.15;100.00;101550.06;6118473;28;19923;-67
2023/10/17 03:27:10;;;;;;;5.50;2.72;;;;;;;3.75;100.00;101554.00;6121897;28;20392;-66
2023/10/17 03:30:10;;;;;;;18.13;3.28;;;;;;;3.77;100.00;101554.78;6122655;28;20025;-66
2023/10/17 03:33:08;;;;;;;19.83;3.47;;;;;;;3.98;100.00;101556.25;6125200;28;20083;-67
2023/10/17 03:36:04;;;;;;;8.15;2.70;;;;;;;3.75;100.00;101559.25;6118137;28;20030;-67
2023/10/17 03:39:20;;;;;;;4.93;3.00;;;;;;;3.60;100.00;101555.69;6121541;28;20487;-66
2023/10/17 03:42:29;;;;;;;5.60;2.97;;;;;;;3.64;100.00;101560.75;6121816;28;20035;-66
2023/10/17 03:45:26;;;;;;;10.73;2.65;;;;;;;3.66;100.00;101558.91;6124106;28;20021;-67
2023/10/17 03:48:23;;;;;;;19.63;2.90;;;;;;;3.61;100.00;101559.16;6121085;28;20056;-67
2023/10/17 03:51:27;;;;;;;8.30;3.28;;;;;;;3.89;100.00;101563.75;6121050;28;20028;-66
2023/10/17 03:54:22;;;;;;;6.53;3.35;;;;;;;3.91;100.00;101572.41;6121559;28;20147;-66
2023/10/17 03:57:25;;;;;;;15.93;3.72;;;;;;;3.46;100.00;101566.03;6120947;28;20028;-66
2023/10/17 04:03:35;;;;;;;22.55;5.72;;;;;;;3.08;100.00;101580.25;6121707;28;20037;-66
2023/10/17 04:06:40;;;;;;;29.85;6.53;;;;;;;3.08;100.00;101582.00;6121263;28;20040;-67
2023/10/17 04:09:52;;;;;;;46.35;7.22;;;;;;;3.04;100.00;101580.50;6124084;28;20114;-67
2023/10/17 04:13:16;;;;;;;28.50;5.90;;;;;;;3.15;100.00;101579.03;6122476;28;20434;-66
2023/10/17 04:16:10;;;;;;;37.03;6.80;;;;;;;3.15;100.00;101579.03;6119707;28;20044;-67
2023/10/17 04:19:18;;;;;;;23.25;5.25;;;;;;;3.24;100.00;101573.31;6120924;28;20031;-67
2023/10/17 04:22:19;;;;;;;;;;;;;;;3.36;100.00;101587.56;6117769;28;20395;-66
2023/10/17 04:25:20;;;;;;;14.27;5.95;;;;;;;3.31;100.00;101574.72;6120921;28;19912;-68
2023/10/17 04:28:16;;;;;;;67.25;8.70;;;;;;;3.37;100.00;101590.09;6118860;28;20103;-66
2023/10/17 04:31:12;;;;;;;51.03;7.45;;;;;;;3.31;100.00;101579.09;6119850;28;20651;-67
2023/10/17 04:34:08;;;;;;;29.10;8.53;;;;;;;3.24;100.00;101578.53;6120407;28;20039;-67
2023/10/17 04:37:05;;;;;;;41.35;8.15;;;;;;;3.35;100.00;101589.34;6127321;28;20024;-66
2023/10/17 04:46:13;;;;;;;162.10;13.30;;;;;;;3.22;100.00;101580.41;6120514;28;20438;-68
2023/10/17 04:49:17;;;;;;;56.08;6.50;;;;;;;3.28;100.00;101581.88;6120076;28;20086;-67
2023/10/17 04:52:21;;;;;;;98.80;9.60;;;;;;;3.37;100.00;101579.59;6120331;28;20036;-67
2023/10/17 04:58:30;;;;;;;49.53;10.03;;;;;;;3.39;100.00;101588.25;6119362;28;20039;-67
2023/10/17 05:04:33;;;;;;;31.90;8.35;;;;;;;3.39;100.00;101583.03;6120515;28;20052;-67
2023/10/17 06:18:17;;;;;;;71.00;6.32;;;;;;;3.37;100.00;101641.69;6120843;28;20041;-67
2023/10/17 06:21:18;;;;;;;19.20;5.03;;;;;;;3.79;100.00;101644.72;6127948;28;20085;-68
2023/10/17 06:30:35;;;;;;;16.42;4.05;;;;;;;4.28;100.00;101639.47;6123845;28;20029;-67
2023/10/17 06:33:35;;;;;;;28.42;4.60;;;;;;;4.28;100.00;101648.22;6121533;28;20055;-67
2023/10/17 06:36:39;;;;;;;29.75;6.47;;;;;;;4.12;100.00;101647.34;6127439;28;20071;-67
2023/10/17 06:39:47;;;;;;;30.65;5.22;;;;;;;3.70;100.00;101662.69;6125309;28;20046;-67
2023/10/17 06:42:49;;;;;;;18.05;5.28;;;;;;;3.75;100.00;101663.34;6111942;28;20036;-67
2023/10/17 06:45:53;;;;;;;50.28;5.63;;;;;;;3.70;100.00;101670.56;6119403;28;20560;-67
2023/10/17 06:48:49;;;;;;;29.63;4.32;;;;;;;3.66;100.00;101669.03;6125216;28;20051;-68
2023/10/17 06:51:56;;;;;;;23.80;4.63;;;;;;;3.87;100.00;101660.06;6126240;28;20067;-66
2023/10/17 06:54:53;;;;;;;52.80;6.10;;;;;;;3.46;100.00;101657.78;6121144;28;20068;-68
2023/10/17 06:57:52;;;;;;;19.15;4.70;;;;;;;3.50;100.00;101632.28;6119476;28;20058;-67
2023/10/17 07:00:49;;;;;;;9.27;3.40;;;;;;;3.55;100.00;101667.81;6120688;28;20032;-67
2023/10/17 07:03:45;;;;;;;66.57;5.88;;;;;;;3.51;100.00;101671.50;6120378;28;20044;-67
2023/10/17 07:06:41;;;;;;;23.75;5.35;;;;;;;3.25;100.00;101650.16;6111296;28;20048;-67
2023/10/17 07:09:39;;;;;;;34.60;4.57;;;;;;;3.41;100.00;101665.03;6123031;28;20455;-67
2023/10/17 07:12:38;;;;;;;53.75;5.22;;;;;;;3.23;100.00;101655.50;6120915;28;20479;-67
2023/10/17 07:15:33;;;;;;;50.78;5.63;;;;;;;3.46;100.00;101663.03;6124311;28;20048;-67
2023/10/17 07:22:21;;;;;;;14.27;4.78;;;;;;;3.52;100.00;101652.25;6123037;28;20501;-66
2023/10/17 07:25:01;;;;;;;33.92;4.78;;;;;;;3.86;100.00;101661.00;6106198;28;20053;-66
2023/10/17 07:27:57;;;;;;;16.80;4.35;;;;;;;4.07;100.00;101658.09;6114709;28;20044;-67
2023/10/17 07:30:57;;;;;;;11.77;3.97;;;;;;;4.22;100.00;101648.53;6120358;28;20031;-68
2023/10/17 07:38:04;;;;;;;22.85;5.28;;;;;;;4.42;100.00;101645.69;6120014;28;20043;-66
2023/10/17 07:40:33;;;;;;;20.75;5.93;;;;;;;4.30;100.00;101646.34;6105554;28;20048;-67
2023/10/17 07:43:31;;;;;;;54.08;8.38;;;;;;;4.15;100.00;101644.56;6120704;28;20047;-68
2023/10/17 07:46:27;;;;;;;60.78;9.43;;;;;;;4.32;100.00;101649.72;6121289;28;20045;-67
2023/10/17 07:49:28;;;;;;;93.85;9.40;;;;;;;4.38;100.00;101638.91;6119690;28;20032;-68
2023/10/17 07:52:23;;;;;;;;;;;;;;;4.57;100.00;101644.84;6123845;28;20039;-66
2023/10/17 07:55:22;;;;;;;24.27;6.77;;;;;;;4.85;100.00;101649.41;6132122;28;20268;-68
2023/10/17 07:58:39;;;;;;;26.55;8.82;;;;;;;4.94;100.00;101642.78;6128116;28;20043;-67
2023/10/17 08:01:44;;;;;;;35.15;6.65;;;;;;;5.25;100.00;101645.31;6124407;28;20036;-67
2023/10/17 08:04:43;;;;;;;67.75;9.32;;;;;;;4.97;100.00;101639.97;6120822;28;20040;-66
2023/10/17 08:07:38;;;;;;;27.52;7.63;;;;;;;5.01;100.00;101633.59;6119876;28;20430;-68
2023/10/17 08:10:38;;;;;;;69.40;8.80;;;;;;;4.94;100.00;101645.41;6120051;28;20059;-66
2023/10/17 08:13:34;;;;;;;46.80;8.52;;;;;;;5.08;100.00;101634.97;6121626;28;20705;-67
2023/10/17 08:16:29;;;;;;;37.58;8.05;;;;;;;5.18;100.00;101639.59;6121675;28;20125;-67
2023/10/17 08:19:36;;;;;;;20.97;6.40;;;;;;;5.66;100.00;101627.94;6120068;28;20024;-67
2023/10/17 08:23:19;;;;;;;34.70;7.80;;;;;;;5.56;100.00;101639.97;6119722;28;20638;-67
2023/10/17 08:25:53;;;;;;;75.65;8.07;;;;;;;5.28;100.00;101640.75;6114235;28;20048;-67
2023/10/17 08:28:50;;;;;;;60.80;8.90;;;;;;;5.37;100.00;101640.22;6124653;28;20028;-68
2023/10/17 08:31:46;;;;;;;123.43;13.25;;;;;;;5.10;100.00;101648.84;6127607;28;20481;-68
2023/10/17 08:34:43;;;;;;;22.53;6.53;;;;;;;5.30;100.00;101636.22;6120081;28;20046;-67
2023/10/17 08:37:44;;;;;;;39.65;6.35;;;;;;;5.50;100.00;101642.97;6121452;28;20459;-68
2023/10/17 08:40:40;;;;;;;44.80;7.47;;;;;;;6.08;100.00;101650.88;6121553;28;20040;-68
2023/10/17 08:43:36;;;;;;;24.05;6.13;;;;;;;6.20;100.00;101643.97;6123212;28;20028;-68
2023/10/17 08:46:31;;;;;;;22.00;5.80;;;;;;;6.47;100.00;101652.78;6122986;28;20028;-68
2023/10/17 08:49:31;;;;;;;24.70;4.93;;;;;;;6.37;100.00;101641.13;6124372;28;20021;-68
2023/10/17 08:52:27;;;;;;;66.53;7.80;;;;;;;5.83;100.00;101643.59;6124481;28;20513;-68
2023/10/17 08:55:24;;;;;;;17.83;5.53;;;;;;;5.87;100.00;101658.25;6125928;28;20029;-66
2023/10/17 08:58:32;;;;;;;26.25;6.88;;;;;;;5.73;100.00;101658.25;6126549;28;20104;-67
2023/10/17 09:01:27;;;;;;;47.33;7.22;;;;;;;5.67;100.00;101661.22;6123757;28;20024;-66
2023/10/17 09:04:24;;;;;;;66.80;8.17;;;;;;;5.73;100.00;101660.88;6126545;28;20360;-68
2023/10/17 09:07:32;;;;;;;18.60;5.00;;;;;;;6.01;100.00;101660.06;6125993;28;20116;-67
2023/10/17 09:10:38;;;;;;;38.05;6.60;;;;;;;6.34;100.00;101662.41;6127616;28;20545;-66
2023/10/17 09:14:10;;;;;;;16.58;5.30;;;;;;;6.66;100.00;101661.22;6124068;28;20082;-67
2023/10/17 09:17:10;;;;;;;86.03;7.38;;;;;;;6.39;100.00;101660.31;6121120;28;20044;-67
2023/10/17 09:20:12;;;;;;;17.67;5.55;;;;;;;6.19;100.00;101656.31;6119578;28;20416;-67
2023/10/17 09:23:27;;;;;;;18.30;6.03;;;;;;;6.47;100.00;101650.16;6122573;28;20028;-67
2023/10/17 09:26:23;;;;;;;15.65;6.20;;;;;;;6.47;100.00;101642.25;6133474;28;20155;-67
2023/10/17 09:29:19;;;;;;;14.68;5.47;;;;;;;6.20;100.00;101634.28;6108154;28;20032;-67
2023/10/17 09:32:40;;;;;;;28.73;8.33;;;;;;;6.19;100.00;101644.94;6124544;28;20548;-67
2023/10/17 09:35:35;;;;;;;14.93;5.80;;;;;;;6.48;100.00;101625.50;6130238;28;20037;-67
2023/10/17 09:38:32;;;;;;;17.47;6.60;;;;;;;6.43;100.00;101624.94;6123352;28;20085;-67
2023/10/17 09:41:28;;;;;;;20.27;7.10;;;;;;;6.62;100.00;101630.75;6125971;28;20029;-66
2023/10/17 09:44:24;;;;;;;18.23;6.45;;;;;;;6.55;100.00;101645.25;6111193;28;20032;-66
2023/10/17 09:47:22;;;;;;;13.63;5.77;;;;;;;6.36;100.00;101639.47;6123156;28;20490;-66
2023/10/17 09:50:20;;;;;;;30.30;6.55;;;;;;;6.23;100.00;101620.09;6111456;28;20289;-66
2023/10/17 09:53:16;;;;;;;15.85;5.53;;;;;;;6.63;100.00;101639.50;6124450;28;20557;-66
2023/10/17 09:56:19;;;;;;;11.60;5.43;;;;;;;6.99;100.00;101645.88;6122749;28;20036;-66
2023/10/17 09:59:18;;;;;;;9.85;4.63;;;;;;;7.25;100.00;101615.16;6122548;28;20090;-66
2023/10/17 10:02:17;;;;;;;16.15;5.90;;;;;;;7.41;100.00;101630.78;6103932;28;20063;-67
2023/10/17 10:05:28;;;;;;;12.88;5.20;;;;;;;7.15;100.00;101625.44;6123754;28;20063;-67
2023/10/17 10:08:27;;;;;;;14.27;4.22;;;;;;;7.28;100.00;101636.06;6107002;28;20441;-66
2023/10/17 10:11:58;;;;;;;13.57;4.57;;;;;;;7.45;100.00;101629.63;6122116;28;20103;-67
2023/10/17 10:14:57;;;;;;;17.98;5.03;;;;;;;7.48;100.00;101627.63;6118749;28;20480;-66
2023/10/17 10:17:53;;;;;;;12.60;4.95;;;;;;;7.60;100.00;101621.53;6120965;28;20052;-67
2023/10/17 10:20:58;;;;;;;12.88;5.03;;;;;;;7.74;100.00;101607.38;6121358;28;20563;-66
2023/10/17 10:23:54;;;;;;;14.60;5.85;;;;;;;7.77;100.00;101629.13;6103116;28;20046;-68
2023/10/17 10:27:10;;;;;;;15.60;4.95;;;;;;;7.79;100.00;101621.97;6108301;28;20373;-68
2023/10/17 10:30:31;;;;;;;13.25;5.43;;;;;;;7.29;100.00;101621.88;6116153;28;20035;-67
2023/10/17 10:33:30;;;;;;;13.02;4.60;;;;;;;7.24;100.00;101612.59;6119864;28;20470;-67
2023/10/17 10:36:26;;;;;;;14.07;6.57;;;;;;;7.54;100.00;101621.09;6122768;28;20086;-67
2023/10/17 10:39:21;;;;;;;13.35;5.25;;;;;;;7.43;100.00;101618.31;6125589;28;20089;-65
2023/10/17 10:42:17;;;;;;;14.30;6.47;;;;;;;7.48;100.00;101616.22;6125410;28;20036;-67
2023/10/17 10:45:32;;;;;;;12.57;5.43;;;;;;;8.00;100.00;101614.31;6124663;28;20501;-67
2023/10/17 10:48:28;;;;;;;15.38;5.78;;;;;;;8.17;100.00;101597.28;6121306;28;20279;-67
2023/10/17 10:51:26;;;;;;;14.23;5.68;;;;;;;7.78;100.00;101604.41;6126618;28;20046;-67
2023/10/17 10:54:22;;;;;;;13.93;6.10;;;;;;;7.68;100.00;101595.44;6119598;28;20048;-67
2023/10/17 10:57:30;;;;;;;16.50;6.22;;;;;;;7.83;100.00;101596.16;6121641;28;20032;-68
2023/10/17 11:00:26;;;;;;;14.15;7.10;;;;;;;8.13;100.00;101594.00;6124238;28;20029;-67
2023/10/17 11:03:22;;;;;;;11.40;4.57;;;;;;;8.03;100.00;101566.56;6123484;28;20531;-67
2023/10/17 11:06:27;;;;;;;12.35;5.63;;;;;;;8.21;100.00;101593.47;6122722;28;20048;-67
2023/10/17 11:09:24;;;;;;;12.35;5.25;;;;;;;8.06;100.00;101602.47;6122553;28;20025;-67
2023/10/17 11:12:22;;;;;;;13.95;5.78;;;;;;;8.50;100.00;101602.00;6123685;28;20040;-67
2023/10/17 11:15:26;;;;;;;13.43;5.07;;;;;;;8.76;100.00;101603.56;6121728;28;20036;-67
2023/10/17 11:18:22;;;;;;;9.75;4.88;;;;;;;8.14;100.00;101557.88;6121789;28;20369;-67
2023/10/17 11:21:20;;;;;;;14.82;5.70;;;;;;;8.77;100.00;101590.25;6124760;28;20105;-66
2023/10/17 11:24:17;;;;;;;10.30;4.53;;;;;;;8.67;100.00;101561.97;6122662;28;20034;-67
2023/10/17 11:27:13;;;;;;;26.20;7.43;;;;;;;8.73;100.00;101566.78;6122585;28;20166;-67
2023/10/17 11:30:10;;;;;;;10.05;4.57;;;;;;;8.99;100.00;101571.00;6121033;28;20478;-67
2023/10/17 11:33:52;;;;;;;9.05;3.67;;;;;;;8.36;100.00;101590.63;6106364;28;20033;-68
2023/10/17 11:36:35;;;;;;;9.18;3.92;;;;;;;8.98;100.00;101575.44;6111878;28;20036;-67
2023/10/17 11:39:40;;;;;;;8.98;3.95;;;;;;;9.18;100.00;101573.94;6121009;28;20039;-67
2023/10/17 11:42:36;;;;;;;9.85;4.57;;;;;;;9.73;100.00;101569.72;6129886;28;20047;-67
2023/10/17 11:45:34;;;;;;;12.68;4.95;;;;;;;9.69;100.00;101576.19;6124953;28;20396;-68
2023/10/17 11:48:32;;;;;;;9.07;4.75;;;;;;;9.30;100.00;101562.41;6122208;28;20039;-67
2023/10/17 11:51:29;;;;;;;9.35;4.25;;;;;;;9.04;100.00;101571.50;6120623;28;20029;-67
2023/10/17 11:54:24;;;;;;;8.55;3.50;;;;;;;9.03;100.00;101568.94;6124112;28;20033;-68
2023/10/17 11:57:23;;;;;;;10.20;4.28;;;;;;;9.05;100.00;101567.88;6126962;28;20082;-67
2023/10/17 12:03:19;;;;;;;18.10;4.10;;;;;;;8.72;100.00;101570.41;6121629;28;20392;-67
2023/10/17 12:06:15;;;;;;;;;;;;;;;8.87;100.00;101575.38;6121432;28;20055;-67
2023/10/17 12:09:31;;;;;;;9.35;4.40;;;;;;;8.98;100.00;101572.78;6124647;28;19920;-67
2023/10/17 12:12:26;;;;;;;9.10;4.07;;;;;;;9.06;100.00;101561.63;6125123;28;20040;-68
2023/10/17 12:15:22;;;;;;;8.35;3.83;;;;;;;8.93;100.00;101539.69;6125669;28;20047;-69
2023/10/17 12:18:17;;;;;;;7.55;3.58;;;;;;;9.31;100.00;101572.06;6120193;28;20029;-67
2023/10/17 12:21:14;;;;;;;8.23;3.90;;;;;;;9.37;100.00;101563.66;6118942;28;20041;-68
2023/10/17 12:24:12;;;;;;;9.75;4.25;;;;;;;9.21;100.00;101573.72;6119776;28;20476;-68
2023/10/17 12:27:12;;;;;;;9.30;4.00;;;;;;;9.11;100.00;101562.13;6120653;28;20441;-67
2023/10/17 12:30:09;;;;;;;8.23;4.13;;;;;;;8.65;100.00;101554.13;6119982;28;20036;-67
2023/10/17 12:33:05;;;;;;;7.45;3.83;;;;;;;8.90;100.00;101555.78;6130284;28;20036;-67
2023/10/17 12:36:01;;;;;;;8.55;4.35;;;;;;;8.86;100.00;101554.31;6130364;28;20032;-67
2023/10/17 12:38:57;;;;;;;10.00;4.57;;;;;;;8.88;100.00;101536.56;6120892;28;20545;-68
2023/10/17 12:41:53;;;;;;;17.85;4.55;;;;;;;8.95;100.00;101545.72;6120055;28;20032;-67
2023/10/17 12:44:49;;;;;;;9.57;4.43;;;;;;;8.98;100.00;101545.47;6119999;28;20035;-68
2023/10/17 12:47:45;;;;;;;11.55;4.18;;;;;;;9.51;100.00;101544.88;6123293;28;20390;-68
2023/10/17 12:50:43;;;;;;;12.07;4.88;;;;;;;9.57;100.00;101539.09;6121892;28;20478;-68
2023/10/17 12:53:39;;;;;;;9.18;4.38;;;;;;;9.80;100.00;101526.72;6122162;28;20040;-68
2023/10/17 12:56:36;;;;;;;9.13;4.53;;;;;;;9.93;100.00;101534.53;6119903;28;20529;-67
2023/10/17 12:59:32;;;;;;;10.45;5.47;;;;;;;9.94;100.00;101518.53;6120809;28;20029;-67
2023/10/17 13:02:29;;;;;;;12.30;5.55;;;;;;;9.88;100.00;101504.91;6124577;28;20024;-67
2023/10/17 13:05:26;;;;;;;11.70;5.38;;;;;;;9.44;100.00;101496.03;6120569;28;20036;-68
2023/10/17 13:08:21;;;;;;;13.40;4.50;;;;;;;9.22;100.00;101489.84;6122425;28;20036;-68
2023/10/17 13:11:17;;;;;;;9.27;4.70;;;;;;;9.22;100.00;101498.63;6120511;28;20032;-67
2023/10/17 13:14:12;;;;;;;8.23;4.87;;;;;;;8.97;100.00;101469.72;6119668;28;20024;-67
2023/10/17 13:17:12;;;;;;;13.20;5.53;;;;;;;9.02;100.00;101472.88;6120366;28;20048;-68
2023/10/17 13:20:10;;;;;;;9.85;5.07;;;;;;;8.75;100.00;101481.09;6123123;28;20032;-67
2023/10/17 13:23:05;;;;;;;9.82;5.07;;;;;;;8.56;100.00;101464.91;6120380;28;20052;-67
2023/10/17 13:26:01;;;;;;;10.55;4.97;;;;;;;8.83;100.00;101456.72;6120634;28;20048;-66
2023/10/17 13:28:58;;;;;;;12.70;5.25;;;;;;;8.79;100.00;101456.13;6119305;28;20056;-67
2023/10/17 13:31:55;;;;;;;15.48;5.97;;;;;;;8.67;100.00;101462.31;6119322;28;20043;-68
2023/10/17 13:34:54;;;;;;;12.27;5.30;;;;;;;8.51;100.00;101455.63;6120634;28;20040;-68
2023/10/17 13:37:54;;;;;;;13.50;5.75;;;;;;;8.57;100.00;101444.63;6123853;28;20040;-68
2023/10/17 13:40:49;;;;;;;15.60;5.28;;;;;;;8.75;100.00;101453.81;6123258;28;20049;-69
2023/10/17 13:43:47;;;;;;;14.40;7.33;;;;;;;8.80;100.00;101447.22;6124522;28;20492;-67
2023/10/17 13:46:43;;;;;;;11.93;5.10;;;;;;;8.72;100.00;101431.09;6126130;28;20479;-68
2023/10/17 13:49:39;;;;;;;12.93;4.83;;;;;;;8.80;100.00;101443.75;6123538;28;20036;-68
2023/10/17 13:52:34;;;;;;;13.43;6.35;;;;;;;8.83;100.00;101436.38;6123737;28;20028;-68
2023/10/17 13:55:34;;;;;;;12.10;5.33;;;;;;;8.91;100.00;101438.47;6123226;28;20024;-68
2023/10/17 13:58:30;;;;;;;11.85;5.50;;;;;;;8.80;100.00;101441.94;6125682;28;20033;-67
2023/10/17 14:01:31;;;;;;;14.45;6.22;;;;;;;8.81;100.00;101445.41;6123326;28;20028;-68
2023/10/17 14:04:27;;;;;;;14.73;6.00;;;;;;;8.84;100.00;101439.88;6122819;28;20028;-68
2023/10/17 14:07:23;;;;;;;13.73;5.57;;;;;;;8.73;100.00;101413.41;6110307;28;20511;-67
2023/10/17 14:10:18;;;;;;;18.80;6.55;;;;;;;8.81;100.00;101406.59;6125671;28;20098;-69
2023/10/17 14:13:16;;;;;;;14.43;5.70;;;;;;;9.02;100.00;101414.69;6123347;28;20037;-69
2023/10/17 14:16:11;;;;;;;16.27;6.82;;;;;;;8.83;100.00;101404.66;6123811;28;20024;-68
2023/10/17 14:19:15;;;;;;;14.27;6.17;;;;;;;8.93;100.00;101424.16;6122804;28;20059;-68
2023/10/17 14:28:40;;;;;;;;;;;;;;;8.85;100.00;101418.63;6121512;28;20032;-68
2023/10/17 14:31:36;;;;;;;16.00;7.10;;;;;;;8.73;100.00;101400.19;6119017;28;19912;-67
2023/10/17 14:34:32;;;;;;;14.60;6.32;;;;;;;8.78;100.00;101405.97;6124018;28;20037;-68
2023/10/17 14:37:27;;;;;;;14.65;5.90;;;;;;;8.85;100.00;101415.13;6119529;28;20040;-69
2023/10/17 14:40:23;;;;;;;12.55;5.70;;;;;;;8.82;100.00;101407.44;6121819;28;20036;-68
2023/10/17 14:43:18;;;;;;;14.30;6.17;;;;;;;8.96;100.00;101412.50;6122854;28;20036;-68
2023/10/17 14:46:14;;;;;;;13.53;5.27;;;;;;;8.94;100.00;101417.91;6120704;28;20033;-67
2023/10/17 14:49:12;;;;;;;16.45;6.15;;;;;;;8.98;100.00;101413.22;6122487;28;20036;-67
2023/10/17 14:52:07;;;;;;;14.82;6.13;;;;;;;8.94;100.00;101425.03;6120856;28;20037;-68
2023/10/17 14:55:03;;;;;;;11.30;5.73;;;;;;;8.95;100.00;101413.47;6121802;28;20056;-68
2023/10/17 14:57:59;;;;;;;14.77;5.57;;;;;;;8.86;100.00;101414.16;6118773;28;20287;-69
2023/10/17 15:00:55;;;;;;;12.00;5.38;;;;;;;8.85;100.00;101417.78;6105497;28;20395;-67
2023/10/17 15:03:50;;;;;;;10.82;5.13;;;;;;;8.72;100.00;101409.09;6126139;28;20163;-67
2023/10/17 15:06:46;;;;;;;13.37;5.43;;;;;;;8.70;100.00;101392.50;6121446;28;20036;-67
2023/10/17 15:09:44;;;;;;;11.77;5.57;;;;;;;8.79;100.00;101413.81;6124324;28;20032;-68
2023/10/17 15:12:40;;;;;;;13.02;5.40;;;;;;;8.79;100.00;101415.59;6110668;28;20470;-68
2023/10/17 15:15:36;;;;;;;15.27;5.90;;;;;;;8.74;100.00;101420.41;6120850;28;20028;-68
2023/10/17 15:18:31;;;;;;;14.00;4.97;;;;;;;8.59;100.00;101408.34;6124348;28;20472;-68
2023/10/17 15:21:27;;;;;;;11.63;5.70;;;;;;;8.61;100.00;101398.50;6112534;28;20051;-68
2023/10/17 15:24:22;;;;;;;13.05;5.43;;;;;;;8.55;100.00;101405.09;6121237;28;20358;-67
2023/10/17 15:27:18;;;;;;;12.67;5.43;;;;;;;8.51;100.00;101398.34;6122506;28;20521;-68
2023/10/17 15:30:13;;;;;;;12.93;6.10;;;;;;;8.38;100.00;101397.59;6120396;28;20267;-68
2023/10/17 15:33:12;;;;;;;19.95;6.80;;;;;;;8.30;100.00;101392.03;6121528;28;20480;-68
2023/10/17 15:36:12;;;;;;;12.93;6.30;;;;;;;8.26;100.00;101404.59;6125117;28;20395;-67
2023/10/17 15:39:12;;;;;;;18.10;6.88;;;;;;;8.23;100.00;101411.91;6103296;28;20040;-69
2023/10/17 15:42:07;;;;;;;25.85;10.40;;;;;;;8.05;100.00;101395.63;6118217;28;20119;-68
2023/10/17 15:45:05;;;;;;;20.40;10.63;;;;;;;8.12;100.00;101407.44;6120799;28;20497;-67
2023/10/17 15:48:00;;;;;;;15.35;6.63;;;;;;;8.03;100.00;101409.91;6123124;28;20447;-68
2023/10/17 15:50:56;;;;;;;11.90;5.37;;;;;;;7.86;100.00;101392.63;6130121;28;20042;-68